createdAt,value
2023-01-09T00:00:22.864Z,6.10
2023-01-09T00:02:49.168Z,5.90
2023-01-09T00:05:16.978Z,6.00
2023-01-09T00:07:43.265Z,6.00
2023-01-09T00:10:09.968Z,6.00
2023-01-09T00:12:36.745Z,6.00
2023-01-09T00:15:03.304Z,6.20
2023-01-09T00:17:29.568Z,5.87
2023-01-09T00:19:55.790Z,6.20
2023-01-09T00:22:22.049Z,6.50
2023-01-09T00:24:48.351Z,6.30
2023-01-09T00:27:14.717Z,6.43
2023-01-09T00:29:42.020Z,6.20
2023-01-09T00:32:10.281Z,6.30
2023-01-09T00:34:37.559Z,6.30
2023-01-09T00:37:04.373Z,6.30
2023-01-09T00:39:30.673Z,6.20
2023-01-09T00:41:58.563Z,6.40
2023-01-09T00:44:31.858Z,6.50
2023-01-09T00:47:01.443Z,6.17
2023-01-09T00:49:32.519Z,6.50
2023-01-09T00:51:59.012Z,6.40
2023-01-09T00:54:26.036Z,6.30
2023-01-09T00:56:52.308Z,6.20
2023-01-09T00:59:18.651Z,6.30
2023-01-09T01:01:45.184Z,6.33
2023-01-09T01:04:30.411Z,6.20
2023-01-09T01:07:15.367Z,6.03
2023-01-09T01:09:41.581Z,6.77
2023-01-09T01:12:07.830Z,6.30
2023-01-09T01:14:35.295Z,6.27
2023-01-09T01:17:01.634Z,6.57
2023-01-09T01:19:27.948Z,6.30
2023-01-09T01:21:54.265Z,6.40
2023-01-09T01:24:20.486Z,6.20
2023-01-09T01:26:47.148Z,6.33
2023-01-09T01:29:13.426Z,6.63
2023-01-09T01:31:39.668Z,6.20
2023-01-09T01:34:05.895Z,6.27
2023-01-09T01:36:32.961Z,6.27
2023-01-09T01:38:59.189Z,6.33
2023-01-09T01:41:31.411Z,6.17
2023-01-09T01:43:59.745Z,6.20
2023-01-09T01:46:26.107Z,6.20
2023-01-09T01:49:05.348Z,6.20
2023-01-09T01:51:32.933Z,6.37
2023-01-09T01:54:00.497Z,6.40
2023-01-09T01:56:36.368Z,6.10
2023-01-09T01:59:11.303Z,6.40
2023-01-09T02:01:41.141Z,6.30
2023-01-09T02:04:07.821Z,6.10
2023-01-09T02:06:34.725Z,6.00
2023-01-09T02:09:03.087Z,6.20
2023-01-09T02:11:29.451Z,6.20
2023-01-09T02:13:55.722Z,6.20
2023-01-09T02:16:33.201Z,6.10
2023-01-09T02:18:59.381Z,6.30
2023-01-09T02:21:46.091Z,6.10
2023-01-09T02:24:31.080Z,6.10
2023-01-09T02:27:12.632Z,6.20
2023-01-09T02:29:41.885Z,6.10
2023-01-09T02:32:26.252Z,6.40
2023-01-09T02:34:55.467Z,6.20
2023-01-09T02:37:27.182Z,6.00
2023-01-09T02:39:58.804Z,6.20
2023-01-09T02:42:25.530Z,7.03
2023-01-09T02:44:51.752Z,6.00
2023-01-09T02:47:18.052Z,6.30
2023-01-09T02:49:53.136Z,6.50
2023-01-09T02:52:30.930Z,6.30
2023-01-09T02:55:07.605Z,6.30
2023-01-09T02:57:48.327Z,6.23
2023-01-09T03:00:33.375Z,6.20
2023-01-09T03:02:59.738Z,6.10
2023-01-09T03:05:30.611Z,6.10
2023-01-09T03:08:02.476Z,6.30
2023-01-09T03:10:48.831Z,6.30
2023-01-09T03:13:17.210Z,6.73
2023-01-09T03:15:44.305Z,6.20
2023-01-09T03:18:11.638Z,6.30
2023-01-09T03:20:38.440Z,6.20
2023-01-09T03:23:05.918Z,6.50
2023-01-09T03:25:32.288Z,6.30
2023-01-09T03:28:00.019Z,6.10
2023-01-09T03:30:27.596Z,6.13
2023-01-09T03:32:54.019Z,6.60
2023-01-09T03:35:20.247Z,6.40
2023-01-09T03:37:46.556Z,6.20
2023-01-09T03:40:12.841Z,6.00
2023-01-09T03:42:39.115Z,6.30
2023-01-09T03:45:06.681Z,6.20
2023-01-09T03:47:32.993Z,6.20
2023-01-09T03:49:59.279Z,6.40
2023-01-09T03:52:25.504Z,6.20
2023-01-09T03:54:51.749Z,6.03
2023-01-09T03:57:17.972Z,6.40
2023-01-09T03:59:44.262Z,6.20
2023-01-09T04:02:10.638Z,6.50
2023-01-09T04:04:37.094Z,6.50
2023-01-09T04:07:03.360Z,6.20
2023-01-09T04:09:29.580Z,6.20
2023-01-09T04:11:55.790Z,6.37
2023-01-09T04:14:22.069Z,6.40
2023-01-09T04:16:48.319Z,6.63
2023-01-09T04:19:14.588Z,6.30
2023-01-09T04:21:40.875Z,6.27
2023-01-09T04:24:07.394Z,6.50
2023-01-09T04:26:33.735Z,6.30
2023-01-09T04:29:00.548Z,6.20
2023-01-09T04:31:26.916Z,6.30
2023-01-09T04:33:53.133Z,6.40
2023-01-09T04:36:19.614Z,6.60
2023-01-09T04:38:45.864Z,6.30
2023-01-09T04:41:32.090Z,6.20
2023-01-09T04:43:58.303Z,6.50
2023-01-09T04:46:24.663Z,6.40
2023-01-09T04:48:50.987Z,6.47
2023-01-09T04:51:17.322Z,6.40
2023-01-09T04:53:43.572Z,6.33
2023-01-09T04:56:09.875Z,6.50
2023-01-09T04:58:36.140Z,6.50
2023-01-09T05:01:02.507Z,6.80
2023-01-09T05:03:28.784Z,6.53
2023-01-09T05:05:55.053Z,6.30
2023-01-09T05:08:21.319Z,6.30
2023-01-09T05:10:47.552Z,6.50
2023-01-09T05:13:13.777Z,6.20
2023-01-09T05:15:40.005Z,6.40
2023-01-09T05:18:06.258Z,6.40
2023-01-09T05:20:32.468Z,6.33
2023-01-09T05:22:58.683Z,6.50
2023-01-09T05:25:24.910Z,6.40
2023-01-09T05:27:51.173Z,6.50
2023-01-09T05:30:18.431Z,6.60
2023-01-09T05:32:45.132Z,6.50
2023-01-09T05:35:11.433Z,6.63
2023-01-09T05:37:37.681Z,6.50
2023-01-09T05:40:04.112Z,6.67
2023-01-09T05:42:30.359Z,6.30
2023-01-09T05:44:56.662Z,6.40
2023-01-09T05:47:22.908Z,6.90
2023-01-09T05:49:49.381Z,6.40
2023-01-09T05:52:15.737Z,6.53
2023-01-09T05:54:41.948Z,6.70
2023-01-09T05:57:08.208Z,6.50
2023-01-09T05:59:34.425Z,6.40
2023-01-09T06:02:00.704Z,6.50
2023-01-09T06:04:29.731Z,6.47
2023-01-09T06:06:56.450Z,6.50
2023-01-09T06:09:22.682Z,6.60
2023-01-09T06:11:48.911Z,6.40
2023-01-09T06:14:15.118Z,6.40
2023-01-09T06:16:41.399Z,6.40
2023-01-09T06:19:07.666Z,6.40
2023-01-09T06:21:33.917Z,6.60
2023-01-09T06:24:00.227Z,6.40
2023-01-09T06:26:26.679Z,6.33
2023-01-09T06:28:55.615Z,6.40
2023-01-09T06:31:25.174Z,6.40
2023-01-09T06:33:51.687Z,6.60
2023-01-09T06:36:17.949Z,6.40
2023-01-09T06:38:44.210Z,6.40
2023-01-09T06:41:10.522Z,6.50
2023-01-09T06:43:36.792Z,7.00
2023-01-09T06:46:05.513Z,6.80
2023-01-09T06:48:32.525Z,6.37
2023-01-09T06:50:58.838Z,6.27
2023-01-09T06:53:25.257Z,6.50
2023-01-09T06:55:51.565Z,6.20
2023-01-09T06:58:18.167Z,6.40
2023-01-09T07:00:44.419Z,6.37
2023-01-09T07:03:11.581Z,6.60
2023-01-09T07:05:39.748Z,6.50
2023-01-09T07:08:06.036Z,6.40
2023-01-09T07:10:32.274Z,6.40
2023-01-09T07:12:58.543Z,6.30
2023-01-09T07:15:24.793Z,6.50
2023-01-09T07:17:51.374Z,6.50
2023-01-09T07:20:18.076Z,6.60
2023-01-09T07:22:44.791Z,6.67
2023-01-09T07:25:11.030Z,6.40
2023-01-09T07:27:37.380Z,6.40
2023-01-09T07:30:04.061Z,6.77
2023-01-09T07:32:30.338Z,6.80
2023-01-09T07:34:56.669Z,6.60
2023-01-09T07:37:22.999Z,6.30
2023-01-09T07:39:49.217Z,6.30
2023-01-09T07:42:15.480Z,6.83
2023-01-09T07:44:41.791Z,6.10
2023-01-09T07:47:08.072Z,6.30
2023-01-09T07:49:34.297Z,6.50
2023-01-09T07:52:00.563Z,6.30
2023-01-09T07:54:26.814Z,6.47
2023-01-09T07:56:53.200Z,6.60
2023-01-09T07:59:19.520Z,6.60
2023-01-09T08:01:45.863Z,6.50
2023-01-09T08:04:12.301Z,6.30
2023-01-09T08:06:38.533Z,6.40
2023-01-09T08:09:04.768Z,6.40
2023-01-09T08:11:32.389Z,6.50
2023-01-09T08:13:58.659Z,6.67
2023-01-09T08:16:24.976Z,6.57
2023-01-09T08:18:51.193Z,6.50
2023-01-09T08:21:17.452Z,6.43
2023-01-09T08:23:45.399Z,6.50
2023-01-09T08:26:11.701Z,6.37
2023-01-09T08:28:37.952Z,6.40
2023-01-09T08:31:04.311Z,6.37
2023-01-09T08:33:32.301Z,6.47
2023-01-09T08:35:58.709Z,6.60
2023-01-09T08:38:24.977Z,6.37
2023-01-09T08:40:51.235Z,6.30
2023-01-09T08:43:36.183Z,6.50
2023-01-09T08:46:21.057Z,6.57
2023-01-09T08:48:48.295Z,6.23
2023-01-09T08:51:14.592Z,6.30
2023-01-09T08:53:40.840Z,6.37
2023-01-09T08:56:07.227Z,6.30
2023-01-09T08:58:33.495Z,6.23
2023-01-09T09:00:59.786Z,6.30
2023-01-09T09:03:26.022Z,6.50
2023-01-09T09:05:52.355Z,6.90
2023-01-09T09:08:19.860Z,6.47
2023-01-09T09:10:46.106Z,6.37
2023-01-09T09:13:12.343Z,6.33
2023-01-09T09:15:38.980Z,6.43
2023-01-09T09:18:06.875Z,6.40
2023-01-09T09:20:34.664Z,6.10
2023-01-09T09:23:00.982Z,6.20
2023-01-09T09:25:27.525Z,6.07
2023-01-09T09:27:55.845Z,6.17
2023-01-09T09:30:22.624Z,6.40
2023-01-09T09:32:49.768Z,6.17
2023-01-09T09:35:17.837Z,6.50
2023-01-09T09:37:52.448Z,6.30
2023-01-09T09:40:29.796Z,6.50
2023-01-09T09:43:33.301Z,6.30
2023-01-09T09:46:07.273Z,6.30
2023-01-09T09:48:33.580Z,6.20
2023-01-09T09:51:12.121Z,6.13
2023-01-09T09:53:42.224Z,6.20
2023-01-09T09:56:12.789Z,6.70
2023-01-09T09:58:50.784Z,6.20
2023-01-09T10:01:23.106Z,6.00
2023-01-09T10:03:52.302Z,5.90
2023-01-09T10:06:32.689Z,6.00
2023-01-09T10:09:17.353Z,6.00
2023-01-09T10:11:49.882Z,5.90
2023-01-09T10:14:23.543Z,5.93
2023-01-09T10:16:50.363Z,6.00
2023-01-09T10:19:16.599Z,5.80
2023-01-09T10:21:48.800Z,6.13
2023-01-09T10:24:24.142Z,5.77
2023-01-09T10:26:57.035Z,5.90
2023-01-09T10:29:32.384Z,5.80
2023-01-09T10:32:20.144Z,6.00
2023-01-09T10:34:47.032Z,5.80
2023-01-09T10:37:13.356Z,5.80
2023-01-09T10:39:45.124Z,6.00
2023-01-09T10:42:15.276Z,5.70
2023-01-09T10:45:01.572Z,5.80
2023-01-09T10:47:30.159Z,5.70
2023-01-09T10:49:56.782Z,5.60
2023-01-09T10:52:26.060Z,5.50
2023-01-09T10:55:02.619Z,5.90
2023-01-09T10:57:35.012Z,5.77
2023-01-09T11:00:01.496Z,5.73
2023-01-09T11:02:30.509Z,5.70
2023-01-09T11:04:56.807Z,6.10
2023-01-09T11:07:25.327Z,5.60
2023-01-09T11:09:55.302Z,5.70
2023-01-09T11:12:26.093Z,5.60
2023-01-09T11:14:52.331Z,5.60
2023-01-09T11:17:20.155Z,5.30
2023-01-09T11:20:15.740Z,5.60
2023-01-09T11:22:47.437Z,5.50
2023-01-09T11:25:14.414Z,5.40
2023-01-09T11:27:41.015Z,5.70
2023-01-09T11:30:22.452Z,5.57
2023-01-09T11:32:48.868Z,5.50
2023-01-09T11:35:17.674Z,5.63
2023-01-09T11:37:44.675Z,5.33
2023-01-09T11:40:21.169Z,5.60
2023-01-09T11:43:04.143Z,5.60
2023-01-09T11:45:31.368Z,5.60
2023-01-09T11:47:58.234Z,5.60
2023-01-09T11:50:25.813Z,5.37
2023-01-09T11:53:10.487Z,5.60
2023-01-09T11:55:42.398Z,5.70
2023-01-09T11:58:14.645Z,5.60
2023-01-09T12:00:47.702Z,5.90
2023-01-09T12:03:29.354Z,5.60
2023-01-09T12:05:59.904Z,5.60
2023-01-09T12:08:26.106Z,5.80
2023-01-09T12:11:06.850Z,5.83
2023-01-09T12:13:36.155Z,5.73
2023-01-09T12:16:11.270Z,5.50
2023-01-09T12:18:46.000Z,5.70
2023-01-09T12:21:32.355Z,5.67
2023-01-09T12:24:22.178Z,5.70
2023-01-09T12:26:59.199Z,5.60
2023-01-09T12:29:25.468Z,5.77
2023-01-09T12:32:09.850Z,5.60
2023-01-09T12:34:43.978Z,5.70
2023-01-09T12:37:12.999Z,5.70
2023-01-09T12:39:44.426Z,5.70
2023-01-09T12:42:10.627Z,5.70
2023-01-09T12:44:58.984Z,5.60
2023-01-09T12:47:57.627Z,6.00
2023-01-09T12:50:23.843Z,6.00
2023-01-09T12:53:05.748Z,6.13
2023-01-09T12:55:37.156Z,6.20
2023-01-09T12:58:08.646Z,6.00
2023-01-09T13:00:39.128Z,5.90
2023-01-09T13:03:13.069Z,6.20
2023-01-09T13:05:43.886Z,6.00
2023-01-09T13:08:15.883Z,5.90
2023-01-09T13:10:42.179Z,5.90
2023-01-09T13:13:24.901Z,5.90
2023-01-09T13:15:54.683Z,5.80
2023-01-09T13:18:24.428Z,5.60
2023-01-09T13:20:53.050Z,5.60
2023-01-09T13:23:29.214Z,5.97
2023-01-09T13:25:57.783Z,5.50
2023-01-09T13:28:26.512Z,5.53
2023-01-09T13:31:16.422Z,5.50
2023-01-09T13:33:44.408Z,5.63
2023-01-09T13:36:20.082Z,5.67
2023-01-09T13:38:49.113Z,5.43
2023-01-09T13:41:35.330Z,5.63
2023-01-09T13:44:01.668Z,5.70
2023-01-09T13:46:43.346Z,5.47
2023-01-09T13:49:29.851Z,5.50
2023-01-09T13:51:57.914Z,5.67
2023-01-09T13:54:42.976Z,5.70
2023-01-09T13:57:29.723Z,5.50
2023-01-09T14:00:17.311Z,5.50
2023-01-09T14:02:46.917Z,5.50
2023-01-09T14:05:14.787Z,5.80
2023-01-09T14:07:49.231Z,5.70
2023-01-09T14:10:22.950Z,5.57
2023-01-09T14:12:50.493Z,5.80
2023-01-09T14:15:29.408Z,5.80
2023-01-09T14:18:06.723Z,5.80
2023-01-09T14:20:36.442Z,5.70
2023-01-09T14:23:28.239Z,5.80
2023-01-09T14:25:50.567Z,5.80
2023-01-09T14:28:24.039Z,6.07
2023-01-09T14:30:53.133Z,5.90
2023-01-09T14:33:19.596Z,5.70
2023-01-09T14:35:54.752Z,5.77
2023-01-09T14:38:41.973Z,5.80
2023-01-09T14:41:18.355Z,5.90
2023-01-09T14:43:57.157Z,5.60
2023-01-09T14:46:24.402Z,5.80
2023-01-09T14:49:03.060Z,5.80
2023-01-09T14:51:31.492Z,6.30
2023-01-09T14:53:59.885Z,5.80
2023-01-09T14:56:30.308Z,5.90
2023-01-09T14:59:03.764Z,5.70
2023-01-09T15:01:32.484Z,5.77
2023-01-09T15:04:01.792Z,5.70
2023-01-09T15:06:29.472Z,5.80
2023-01-09T15:08:55.700Z,6.20
2023-01-09T15:11:22.014Z,5.90
2023-01-09T15:13:49.466Z,5.83
2023-01-09T15:16:19.745Z,5.70
2023-01-09T15:18:48.253Z,5.93
2023-01-09T15:21:20.352Z,5.70
2023-01-09T15:23:46.657Z,5.70
2023-01-09T15:26:26.491Z,5.90
2023-01-09T15:28:53.982Z,5.80
2023-01-09T15:31:22.753Z,5.90
2023-01-09T15:33:49.222Z,6.10
2023-01-09T15:36:20.586Z,6.10
2023-01-09T15:38:47.898Z,6.00
2023-01-09T15:41:38.821Z,5.80
2023-01-09T15:44:06.183Z,6.00
2023-01-09T15:46:32.671Z,5.90
2023-01-09T15:48:59.851Z,6.23
2023-01-09T15:51:26.369Z,5.83
2023-01-09T15:53:53.784Z,5.97
2023-01-09T15:56:23.973Z,6.20
2023-01-09T15:58:51.352Z,6.00
2023-01-09T16:01:20.469Z,6.30
2023-01-09T16:03:47.015Z,5.90
2023-01-09T16:06:16.461Z,6.00
2023-01-09T16:08:48.704Z,6.13
2023-01-09T16:11:26.168Z,5.70
2023-01-09T16:13:53.396Z,6.07
2023-01-09T16:16:27.438Z,6.20
2023-01-09T16:18:54.627Z,6.00
2023-01-09T16:21:22.794Z,6.60
2023-01-09T16:23:53.368Z,6.20
2023-01-09T16:26:21.034Z,6.20
2023-01-09T16:28:47.293Z,6.10
2023-01-09T16:31:21.401Z,6.20
2023-01-09T16:33:49.915Z,6.30
2023-01-09T16:36:19.762Z,6.10
2023-01-09T16:38:46.081Z,6.70
2023-01-09T16:41:34.443Z,6.03
2023-01-09T16:44:00.822Z,5.80
2023-01-09T16:46:28.149Z,6.20
2023-01-09T16:48:54.446Z,6.10
2023-01-09T16:51:21.823Z,6.40
2023-01-09T16:53:48.696Z,6.23
2023-01-09T16:56:23.297Z,6.10
2023-01-09T16:58:50.406Z,6.00
2023-01-09T17:01:16.767Z,6.00
2023-01-09T17:03:44.220Z,6.07
2023-01-09T17:06:26.014Z,6.50
2023-01-09T17:08:52.440Z,6.10
2023-01-09T17:11:20.085Z,6.27
2023-01-09T17:13:47.424Z,6.37
2023-01-09T17:16:14.296Z,6.30
2023-01-09T17:18:40.644Z,6.20
2023-01-09T17:21:13.992Z,6.43
2023-01-09T17:23:40.216Z,6.30
2023-01-09T17:26:25.162Z,6.30
2023-01-09T17:28:51.460Z,6.50
2023-01-09T17:31:18.020Z,6.33
2023-01-09T17:33:44.372Z,6.27
2023-01-09T17:36:31.842Z,6.40
2023-01-09T17:38:58.671Z,6.40
2023-01-09T17:41:26.181Z,6.20
2023-01-09T17:43:52.452Z,6.37
2023-01-09T17:46:38.930Z,6.30
2023-01-09T17:49:05.592Z,6.50
2023-01-09T17:51:31.863Z,6.20
2023-01-09T17:53:58.557Z,6.10
2023-01-09T17:56:26.176Z,6.60
2023-01-09T17:58:52.487Z,6.30
2023-01-09T18:01:19.222Z,6.10
2023-01-09T18:03:48.131Z,6.50
2023-01-09T18:06:15.643Z,6.40
2023-01-09T18:08:42.100Z,6.37
2023-01-09T18:11:12.161Z,6.47
2023-01-09T18:13:38.466Z,6.43
2023-01-09T18:16:09.036Z,6.20
2023-01-09T18:18:35.290Z,6.50
2023-01-09T18:21:03.800Z,6.20
2023-01-09T18:23:30.119Z,6.30
2023-01-09T18:25:56.475Z,6.27
2023-01-09T18:28:22.740Z,6.40
2023-01-09T18:30:52.009Z,6.30
2023-01-09T18:33:18.366Z,6.20
2023-01-09T18:35:44.923Z,6.03
2023-01-09T18:38:12.104Z,6.50
2023-01-09T18:40:38.386Z,6.70
2023-01-09T18:43:05.974Z,6.40
2023-01-09T18:45:32.709Z,6.37
2023-01-09T18:47:59.181Z,6.77
2023-01-09T18:50:25.813Z,6.27
2023-01-09T18:52:52.052Z,6.47
2023-01-09T18:55:18.330Z,6.80
2023-01-09T18:57:44.814Z,6.80
2023-01-09T19:00:11.618Z,6.73
2023-01-09T19:02:37.926Z,6.30
2023-01-09T19:05:05.492Z,6.30
2023-01-09T19:07:31.846Z,6.07
2023-01-09T19:09:58.094Z,6.23
2023-01-09T19:12:24.336Z,6.40
2023-01-09T19:14:51.082Z,6.30
2023-01-09T19:17:17.320Z,6.50
2023-01-09T19:19:43.622Z,6.30
2023-01-09T19:22:10.647Z,6.70
2023-01-09T19:24:37.560Z,6.30
2023-01-09T19:27:03.800Z,6.37
2023-01-09T19:29:30.082Z,6.40
2023-01-09T19:31:56.886Z,6.23
2023-01-09T19:34:24.048Z,6.10
2023-01-09T19:36:50.648Z,6.40
2023-01-09T19:39:17.138Z,6.20
2023-01-09T19:41:43.546Z,6.30
2023-01-09T19:44:10.774Z,6.30
2023-01-09T19:46:37.038Z,6.30
2023-01-09T19:49:06.648Z,6.60
2023-01-09T19:51:33.348Z,6.30
2023-01-09T19:56:30.959Z,6.20
2023-01-09T19:58:58.558Z,6.00
2023-01-09T20:01:26.416Z,5.90
2023-01-09T20:03:53.180Z,6.13
2023-01-09T20:06:23.974Z,6.10
2023-01-09T20:08:57.627Z,6.20
2023-01-09T20:11:25.073Z,6.00
2023-01-09T20:13:51.337Z,6.10
2023-01-09T20:16:19.986Z,6.00
2023-01-09T20:18:46.714Z,6.10
2023-01-09T20:23:49.598Z,6.20
2023-01-09T20:26:17.033Z,6.10
2023-01-09T20:28:44.156Z,6.13
2023-01-09T20:31:11.184Z,6.20
2023-01-09T20:33:37.589Z,6.10
2023-01-09T20:36:04.820Z,6.20
2023-01-09T20:38:31.607Z,6.30
2023-01-09T20:40:57.857Z,6.50
2023-01-09T20:43:24.332Z,6.33
2023-01-09T20:45:50.669Z,6.30
2023-01-09T20:48:16.924Z,6.50
2023-01-09T20:50:43.259Z,6.50
2023-01-09T20:53:09.481Z,6.90
2023-01-09T20:55:35.721Z,6.60
2023-01-09T20:58:01.967Z,6.50
2023-01-09T21:00:32.103Z,6.40
2023-01-09T21:02:59.110Z,6.70
2023-01-09T21:05:25.522Z,6.53
2023-01-09T21:07:52.163Z,6.30
2023-01-09T21:10:18.463Z,6.50
2023-01-09T21:12:44.687Z,6.40
2023-01-09T21:15:15.086Z,6.47
2023-01-09T21:17:41.449Z,6.50
2023-01-09T21:20:14.845Z,6.70
2023-01-09T21:22:41.511Z,6.87
2023-01-09T21:25:08.174Z,6.70
2023-01-09T21:27:38.189Z,6.30
2023-01-09T21:30:05.157Z,6.50
2023-01-09T21:32:32.762Z,6.60
2023-01-09T21:35:03.454Z,6.43
2023-01-09T21:37:30.546Z,6.20
2023-01-09T21:39:56.794Z,6.37
2023-01-09T21:42:41.687Z,6.40
2023-01-09T21:45:36.218Z,6.40
2023-01-09T21:48:03.702Z,7.27
2023-01-09T21:50:29.957Z,6.50
2023-01-09T21:52:56.229Z,6.60
2023-01-09T21:55:22.589Z,6.60
2023-01-09T21:57:48.812Z,6.40
2023-01-09T22:00:15.342Z,6.30
2023-01-09T22:02:41.577Z,6.50
2023-01-09T22:05:07.918Z,6.80
2023-01-09T22:07:34.164Z,6.77
2023-01-09T22:10:00.409Z,6.77
2023-01-09T22:12:26.658Z,6.60
2023-01-09T22:14:52.921Z,6.60
2023-01-09T22:17:19.135Z,6.80
2023-01-09T22:19:45.390Z,6.93
2023-01-09T22:22:11.614Z,6.37
2023-01-09T22:24:37.883Z,6.43
2023-01-09T22:27:04.357Z,6.77
2023-01-09T22:29:30.612Z,6.50
2023-01-09T22:31:56.931Z,6.50
2023-01-09T22:34:23.319Z,6.63
2023-01-09T22:36:49.596Z,6.70
2023-01-09T22:39:16.855Z,6.60
2023-01-09T22:41:43.282Z,6.60
2023-01-09T22:44:10.605Z,6.50
2023-01-09T22:46:37.075Z,6.50
2023-01-09T22:49:04.143Z,6.70
2023-01-09T22:51:36.194Z,6.70
2023-01-09T22:54:02.478Z,7.00
2023-01-09T22:56:28.885Z,6.73
2023-01-09T22:58:55.821Z,6.50
2023-01-09T23:01:22.300Z,6.70
2023-01-09T23:03:48.548Z,6.70
2023-01-09T23:06:16.393Z,6.70
2023-01-09T23:08:42.649Z,6.50
2023-01-09T23:11:11.447Z,6.40
2023-01-09T23:13:37.864Z,6.70
2023-01-09T23:16:04.438Z,6.70
2023-01-09T23:18:30.818Z,6.80
2023-01-09T23:20:58.372Z,6.83
2023-01-09T23:23:26.024Z,6.43
2023-01-09T23:25:53.314Z,6.60
2023-01-09T23:28:20.146Z,6.40
2023-01-09T23:30:46.683Z,6.50
2023-01-09T23:33:12.944Z,7.60
2023-01-09T23:35:39.398Z,6.70
2023-01-09T23:38:05.708Z,6.83
2023-01-09T23:40:31.981Z,6.70
2023-01-09T23:43:10.226Z,6.67
2023-01-09T23:45:37.632Z,6.50
2023-01-09T23:48:04.885Z,6.60
2023-01-09T23:50:31.174Z,7.10
2023-01-09T23:52:57.763Z,6.60
2023-01-09T23:55:24.348Z,6.50
2023-01-09T23:57:56.541Z,6.40
